Time;durP1;ratioP1;P1;durP2;ratioP2;P2;SDS_P1;SDS_P2;PMS_P1;PMS_P2;Temp;Humidity;BMP_temperature;BMP_pressure;BME280_temperature;BME280_humidity;BME280_pressure;Samples;Min_cycle;Max_cycle;Signal;HPM_P1;HPM_P2
2023/06/29 00:01:03;;;;;;;28.02;22.88;;;18.70;99.90;;;;;;4995206;28;92302;-36
2023/06/29 00:03:31;;;;;;;32.00;26.38;;;18.70;99.90;;;;;;5002004;28;94333;-37
2023/06/29 00:05:58;;;;;;;32.63;25.23;;;18.70;99.90;;;;;;5015544;28;94807;-32
2023/06/29 00:08:25;;;;;;;28.17;23.05;;;18.70;99.90;;;;;;5008144;28;94324;-33
2023/06/29 00:10:55;;;;;;;27.65;23.58;;;18.70;99.90;;;;;;4995275;28;93223;-35
2023/06/29 00:13:22;;;;;;;34.10;25.75;;;18.80;99.90;;;;;;4995311;28;93899;-33
2023/06/29 00:15:48;;;;;;;29.38;23.30;;;18.70;99.90;;;;;;4995980;28;95565;-38
2023/06/29 00:18:14;;;;;;;28.90;22.80;;;18.70;99.90;;;;;;5015129;28;95679;-34
2023/06/29 00:20:41;;;;;;;33.03;25.20;;;18.70;99.90;;;;;;5014355;28;92211;-33
2023/06/29 00:23:07;;;;;;;27.40;23.57;;;18.70;99.90;;;;;;5005910;28;94522;-37
2023/06/29 00:25:33;;;;;;;27.70;23.15;;;18.70;99.90;;;;;;5009671;28;95014;-35
2023/06/29 00:27:59;;;;;;;29.58;24.60;;;18.70;99.90;;;;;;5005455;28;94899;-37
2023/06/29 00:30:24;;;;;;;30.92;24.08;;;18.60;99.90;;;;;;4994847;28;92234;-34
2023/06/29 00:32:50;;;;;;;32.08;25.85;;;18.70;99.90;;;;;;5004375;28;92277;-33
2023/06/29 00:35:16;;;;;;;28.83;23.98;;;18.70;99.90;;;;;;4998859;28;94604;-35
2023/06/29 00:37:44;;;;;;;28.30;24.15;;;18.70;99.90;;;;;;5014775;27;94507;-33
2023/06/29 00:40:11;;;;;;;30.85;24.17;;;18.60;99.90;;;;;;5031606;27;95540;-34
2023/06/29 00:42:37;;;;;;;29.83;23.95;;;18.60;99.90;;;;;;5023591;27;92206;-34
2023/06/29 00:45:06;;;;;;;28.17;25.02;;;18.70;99.90;;;;;;5016075;27;95564;-32
2023/06/29 00:47:34;;;;;;;29.75;24.70;;;18.60;99.90;;;;;;5034016;27;95018;-33
2023/06/29 00:50:00;;;;;;;29.17;24.90;;;18.60;99.90;;;;;;5030044;27;92157;-32
2023/06/29 00:52:27;;;;;;;28.05;24.10;;;18.60;99.90;;;;;;5022913;27;94778;-34
2023/06/29 00:54:58;;;;;;;33.55;26.10;;;18.60;99.90;;;;;;5001193;27;94356;-39
2023/06/29 00:57:24;;;;;;;36.30;28.85;;;18.60;99.90;;;;;;5034321;27;94649;-38
2023/06/29 00:59:50;;;;;;;34.90;25.10;;;18.60;99.90;;;;;;5024125;27;94162;-35
2023/06/29 01:02:17;;;;;;;33.65;25.77;;;18.60;99.90;;;;;;5036060;27;92498;-34
2023/06/29 01:04:45;;;;;;;34.13;25.77;;;18.60;99.90;;;;;;5018818;27;95551;-38
2023/06/29 01:07:30;;;;;;;36.42;26.10;;;18.60;99.90;;;;;;5016837;28;95329;-35
2023/06/29 01:09:58;;;;;;;34.78;25.77;;;18.60;99.90;;;;;;5005734;28;94448;-35
2023/06/29 01:12:25;;;;;;;35.97;27.30;;;18.60;99.90;;;;;;5016875;28;92659;-33
2023/06/29 01:14:51;;;;;;;28.45;23.83;;;18.60;99.90;;;;;;5017100;28;93989;-35
2023/06/29 01:17:22;;;;;;;36.47;26.45;;;18.60;99.90;;;;;;5030896;27;94359;-34
2023/06/29 01:19:49;;;;;;;33.97;25.42;;;18.60;99.90;;;;;;5029574;27;93389;-33
2023/06/29 01:22:31;;;;;;;33.15;29.58;;;18.60;99.90;;;;;;5032093;27;92699;-33
2023/06/29 01:24:59;;;;;;;35.85;26.17;;;18.60;99.90;;;;;;5037224;27;95255;-36
2023/06/29 01:27:24;;;;;;;40.33;26.83;;;18.50;99.90;;;;;;5019059;27;94495;-32
2023/06/29 01:29:53;;;;;;;30.05;25.33;;;18.60;99.90;;;;;;5027641;27;93150;-34
2023/06/29 01:32:19;;;;;;;32.70;25.55;;;18.50;99.90;;;;;;5035462;27;94557;-37
2023/06/29 01:34:44;;;;;;;28.38;23.70;;;18.50;99.90;;;;;;5025860;27;95276;-34
2023/06/29 01:37:19;;;;;;;38.33;26.85;;;18.50;99.90;;;;;;4976352;28;1152190;-34
2023/06/29 01:39:53;;;;;;;30.23;23.10;;;18.50;99.90;;;;;;5031179;27;93022;-34
2023/06/29 01:42:23;;;;;;;37.65;26.63;;;18.50;99.90;;;;;;5012496;27;94302;-33
2023/06/29 01:44:49;;;;;;;30.45;27.05;;;18.50;99.90;;;;;;5034902;27;94760;-33
2023/06/29 01:47:16;;;;;;;34.28;26.33;;;18.50;99.90;;;;;;5018259;28;94495;-38
2023/06/29 01:49:42;;;;;;;33.40;26.90;;;18.50;99.90;;;;;;5012285;27;94083;-34
2023/06/29 01:52:08;;;;;;;28.52;24.33;;;18.50;99.90;;;;;;5016923;28;92305;-37
2023/06/29 01:54:34;;;;;;;26.98;23.67;;;18.50;99.90;;;;;;5017119;28;95531;-34
2023/06/29 01:57:00;;;;;;;30.02;26.30;;;18.50;99.90;;;;;;5017782;28;95266;-35
2023/06/29 01:59:26;;;;;;;29.70;23.35;;;18.50;99.90;;;;;;5017077;27;92120;-35
2023/06/29 02:01:52;;;;;;;26.80;23.92;;;18.50;99.90;;;;;;5017926;28;92749;-37
2023/06/29 02:04:18;;;;;;;29.02;25.50;;;18.50;99.90;;;;;;5017240;27;94771;-34
2023/06/29 02:06:43;;;;;;;38.08;25.60;;;18.50;99.90;;;;;;5018055;27;94674;-34
2023/06/29 02:09:09;;;;;;;35.22;24.65;;;18.50;99.90;;;;;;5016364;27;93701;-35
2023/06/29 02:11:35;;;;;;;25.88;23.17;;;18.50;99.90;;;;;;5017581;28;93980;-38
2023/06/29 02:14:00;;;;;;;29.75;25.05;;;18.50;99.90;;;;;;5017942;27;94668;-32
2023/06/29 02:16:26;;;;;;;28.90;22.67;;;18.50;99.90;;;;;;5037244;27;94872;-33
2023/06/29 02:18:51;;;;;;;32.13;25.42;;;18.50;99.90;;;;;;5036234;27;93207;-35
2023/06/29 02:21:17;;;;;;;30.92;24.83;;;18.50;99.90;;;;;;5011114;27;94593;-34
2023/06/29 02:23:43;;;;;;;32.92;24.55;;;18.50;99.90;;;;;;5017426;27;95346;-40
2023/06/29 02:26:08;;;;;;;26.63;23.90;;;18.40;99.90;;;;;;5022889;27;94656;-34
2023/06/29 02:28:34;;;;;;;31.13;25.17;;;18.50;99.90;;;;;;5035380;27;94473;-38
2023/06/29 02:31:00;;;;;;;27.88;23.95;;;18.40;99.90;;;;;;5035365;27;94544;-35
2023/06/29 02:33:25;;;;;;;32.88;23.35;;;18.40;99.90;;;;;;5021489;27;95075;-35
2023/06/29 02:35:51;;;;;;;31.35;24.95;;;18.40;99.90;;;;;;5017912;28;94693;-36
2023/06/29 02:38:16;;;;;;;28.67;23.52;;;18.40;99.90;;;;;;5028547;27;94883;-34
2023/06/29 02:40:42;;;;;;;29.90;22.40;;;18.40;99.90;;;;;;5023759;27;93914;-39
2023/06/29 02:43:08;;;;;;;32.53;24.55;;;18.40;99.90;;;;;;5025732;27;94356;-36
2023/06/29 02:45:33;;;;;;;32.38;26.15;;;18.40;99.90;;;;;;5022225;27;95483;-38
2023/06/29 02:47:59;;;;;;;28.52;24.38;;;18.40;99.90;;;;;;5034987;27;94230;-37
2023/06/29 02:50:24;;;;;;;26.77;22.95;;;18.40;99.90;;;;;;5028686;27;94443;-34
2023/06/29 02:52:50;;;;;;;25.85;22.40;;;18.40;99.90;;;;;;5016852;28;94520;-32
2023/06/29 02:55:16;;;;;;;27.63;24.50;;;18.40;99.90;;;;;;5029118;27;94516;-35
2023/06/29 02:57:41;;;;;;;28.42;23.73;;;18.40;99.90;;;;;;5016523;28;94848;-37
2023/06/29 03:00:08;;;;;;;30.13;24.92;;;18.40;99.90;;;;;;5022510;27;93738;-35
2023/06/29 03:02:33;;;;;;;26.35;22.88;;;18.40;99.90;;;;;;5023756;27;95097;-34
2023/06/29 03:04:59;;;;;;;35.28;23.58;;;18.40;99.90;;;;;;5016274;28;95558;-37
2023/06/29 03:07:25;;;;;;;30.73;23.35;;;18.40;99.90;;;;;;5015530;28;95488;-33
2023/06/29 03:09:50;;;;;;;26.98;22.52;;;18.40;99.90;;;;;;5016927;27;93677;-38
2023/06/29 03:12:16;;;;;;;27.08;22.58;;;18.40;99.90;;;;;;5016277;27;94832;-34
2023/06/29 03:14:42;;;;;;;30.48;23.73;;;18.40;99.90;;;;;;5016704;27;94399;-38
2023/06/29 03:17:08;;;;;;;29.80;22.52;;;18.40;99.90;;;;;;5016904;27;94092;-35
2023/06/29 03:19:34;;;;;;;27.10;23.92;;;18.40;99.90;;;;;;5015887;27;93233;-38
2023/06/29 03:21:59;;;;;;;28.42;21.58;;;18.40;99.90;;;;;;5016306;28;94459;-34
2023/06/29 03:24:25;;;;;;;29.25;23.30;;;18.40;99.90;;;;;;5016499;27;95591;-33
2023/06/29 03:26:50;;;;;;;34.92;24.90;;;18.40;99.90;;;;;;5016655;27;93126;-35
2023/06/29 03:29:16;;;;;;;27.15;24.35;;;18.40;99.90;;;;;;5017206;27;93890;-32
2023/06/29 03:31:42;;;;;;;27.38;23.70;;;18.40;99.90;;;;;;5015654;28;95475;-33
2023/06/29 03:34:08;;;;;;;31.52;23.98;;;18.40;99.90;;;;;;5015515;28;95712;-36
2023/06/29 03:36:33;;;;;;;28.45;25.38;;;18.40;99.90;;;;;;5016137;28;94340;-35
2023/06/29 03:38:59;;;;;;;34.70;24.75;;;18.40;99.90;;;;;;5016091;27;94542;-38
2023/06/29 03:41:25;;;;;;;33.65;25.92;;;18.40;99.90;;;;;;5015842;28;94291;-33
2023/06/29 03:43:51;;;;;;;33.05;25.20;;;18.40;99.90;;;;;;5015288;28;92934;-37
2023/06/29 03:46:16;;;;;;;35.40;26.30;;;18.40;99.90;;;;;;5016776;27;94137;-32
2023/06/29 03:48:42;;;;;;;34.22;25.73;;;18.40;99.90;;;;;;5015783;28;92868;-34
2023/06/29 03:51:08;;;;;;;34.88;29.05;;;18.50;99.90;;;;;;5015864;28;93729;-35
2023/06/29 03:53:33;;;;;;;33.53;25.80;;;18.50;99.90;;;;;;5015251;27;96486;-34
2023/06/29 03:55:59;;;;;;;34.92;25.83;;;18.50;99.90;;;;;;5015367;28;95416;-37
2023/06/29 03:58:25;;;;;;;39.97;27.05;;;18.50;99.90;;;;;;5020168;27;92679;-34
2023/06/29 04:00:50;;;;;;;29.77;24.70;;;18.50;99.90;;;;;;5035097;27;95092;-36
2023/06/29 04:03:16;;;;;;;30.30;25.73;;;18.50;99.90;;;;;;5021558;27;95303;-35
2023/06/29 04:05:42;;;;;;;29.50;23.98;;;18.50;99.90;;;;;;5024155;27;94496;-34
2023/06/29 04:08:08;;;;;;;30.40;23.95;;;18.50;99.90;;;;;;5027915;27;93504;-38
2023/06/29 04:10:34;;;;;;;32.65;26.48;;;18.50;99.90;;;;;;5027160;27;94536;-34
2023/06/29 04:13:00;;;;;;;29.88;26.27;;;18.60;99.90;;;;;;5021324;27;95666;-36
2023/06/29 04:15:25;;;;;;;33.22;26.55;;;18.60;99.90;;;;;;5024036;27;92492;-34
2023/06/29 04:17:51;;;;;;;36.35;27.70;;;18.60;99.90;;;;;;5028549;27;95286;-35
2023/06/29 04:20:17;;;;;;;35.55;28.50;;;18.60;99.90;;;;;;5014803;27;96294;-38
2023/06/29 04:22:43;;;;;;;33.67;27.63;;;18.60;99.90;;;;;;5015350;28;95236;-35
2023/06/29 04:25:09;;;;;;;27.65;24.15;;;18.60;99.90;;;;;;5015150;28;94638;-34
2023/06/29 04:27:35;;;;;;;32.97;26.83;;;18.60;99.90;;;;;;5015447;28;95087;-38
2023/06/29 04:30:04;;;;;;;32.92;27.13;;;18.60;99.90;;;;;;5015234;27;94760;-33
2023/06/29 04:32:31;;;;;;;35.38;26.92;;;18.60;99.90;;;;;;5016574;27;96745;-34
2023/06/29 04:34:56;;;;;;;31.55;25.58;;;18.70;99.90;;;;;;5020597;28;93166;-33
2023/06/29 04:37:22;;;;;;;37.97;28.92;;;18.70;99.90;;;;;;5049779;22;93878;-34
2023/06/29 04:39:48;;;;;;;35.83;28.27;;;18.70;99.90;;;;;;5018743;28;94801;-34
2023/06/29 04:42:14;;;;;;;38.75;29.60;;;18.70;99.90;;;;;;5021888;28;94303;-35
2023/06/29 04:44:40;;;;;;;31.88;26.98;;;18.80;99.90;;;;;;5021470;28;94603;-38
2023/06/29 04:47:06;;;;;;;34.35;26.88;;;18.80;99.90;;;;;;5021511;27;93664;-35
2023/06/29 04:49:32;;;;;;;32.70;28.10;;;18.80;99.90;;;;;;5021874;28;95308;-35
2023/06/29 04:52:00;;;;;;;37.70;30.45;;;18.80;99.90;;;;;;5021368;28;94809;-33
2023/06/29 04:54:27;;;;;;;36.67;28.02;;;18.80;99.90;;;;;;5021409;28;94323;-35
2023/06/29 04:56:53;;;;;;;39.08;29.35;;;18.90;99.90;;;;;;5022023;28;94348;-34
2023/06/29 04:59:23;;;;;;;37.17;28.92;;;18.90;99.90;;;;;;5021283;28;94387;-35
2023/06/29 05:01:49;;;;;;;37.88;31.08;;;18.90;99.90;;;;;;5009042;28;95186;-34
2023/06/29 05:04:15;;;;;;;32.63;27.27;;;18.90;99.90;;;;;;5021832;28;93261;-34
2023/06/29 05:06:40;;;;;;;37.20;29.98;;;18.90;99.90;;;;;;5021037;27;94887;-32
2023/06/29 05:09:06;;;;;;;40.50;29.83;;;19.00;99.90;;;;;;5001750;28;96377;-35
2023/06/29 05:11:34;;;;;;;36.55;29.15;;;19.00;99.90;;;;;;5021847;28;95292;-37
2023/06/29 05:14:00;;;;;;;36.20;29.13;;;19.10;99.90;;;;;;5020798;27;93188;-35
2023/06/29 05:16:26;;;;;;;34.95;28.35;;;19.10;99.90;;;;;;5031611;27;94591;-33
2023/06/29 05:18:51;;;;;;;38.25;28.48;;;19.20;99.90;;;;;;5021576;28;94482;-35
2023/06/29 05:21:17;;;;;;;39.05;29.20;;;19.20;99.90;;;;;;5021172;28;95147;-33
2023/06/29 05:23:43;;;;;;;39.35;30.48;;;19.30;99.90;;;;;;5021886;28;94343;-37
2023/06/29 05:26:08;;;;;;;38.35;27.98;;;19.30;99.90;;;;;;5021377;28;92678;-34
2023/06/29 05:28:34;;;;;;;38.40;30.75;;;19.40;99.90;;;;;;5021400;28;94832;-35
2023/06/29 05:31:00;;;;;;;39.85;31.15;;;19.40;99.90;;;;;;5021538;28;94849;-35
2023/06/29 05:33:25;;;;;;;34.90;29.20;;;19.40;99.90;;;;;;5020203;28;95173;-34
2023/06/29 05:35:51;;;;;;;34.55;29.52;;;19.50;99.90;;;;;;5021410;28;93289;-36
2023/06/29 05:38:17;;;;;;;40.33;30.95;;;19.50;99.90;;;;;;5020215;28;95310;-34
2023/06/29 05:40:42;;;;;;;36.05;28.88;;;19.50;99.90;;;;;;5020854;28;94282;-36
2023/06/29 05:43:08;;;;;;;35.42;30.27;;;19.60;99.90;;;;;;5021131;28;93434;-34
2023/06/29 05:45:33;;;;;;;33.03;28.70;;;19.60;99.90;;;;;;5017732;28;93141;-33
2023/06/29 05:47:59;;;;;;;38.00;29.67;;;19.60;99.90;;;;;;5023566;27;94556;-37
2023/06/29 05:50:25;;;;;;;37.50;30.27;;;19.70;99.90;;;;;;5017664;28;94553;-35
2023/06/29 05:52:50;;;;;;;37.67;30.23;;;19.70;99.90;;;;;;5018668;27;93109;-35
2023/06/29 05:55:16;;;;;;;32.63;26.88;;;19.80;99.90;;;;;;5017471;28;92455;-35
2023/06/29 05:57:42;;;;;;;42.53;28.48;;;19.90;99.90;;;;;;5015928;28;96130;-36
2023/06/29 06:00:12;;;;;;;36.72;29.65;;;19.90;99.90;;;;;;5014951;28;96017;-35
2023/06/29 06:02:39;;;;;;;39.45;29.05;;;19.90;99.90;;;;;;5015207;28;93204;-37
2023/06/29 06:05:07;;;;;;;33.33;29.83;;;20.00;99.90;;;;;;5016120;28;92850;-34
2023/06/29 06:07:33;;;;;;;34.13;29.43;;;20.10;99.90;;;;;;5015672;28;93521;-32
2023/06/29 06:09:59;;;;;;;43.15;29.38;;;20.20;99.90;;;;;;5014837;28;94427;-37
2023/06/29 06:12:25;;;;;;;37.00;30.08;;;20.20;99.90;;;;;;5015395;28;93344;-34
2023/06/29 06:14:50;;;;;;;33.45;27.85;;;20.40;99.90;;;;;;5015613;28;93095;-33
2023/06/29 06:17:16;;;;;;;39.55;28.27;;;20.40;99.90;;;;;;5015823;28;94688;-33
2023/06/29 06:19:42;;;;;;;30.40;27.20;;;20.50;99.90;;;;;;5015525;28;95020;-33
2023/06/29 06:22:08;;;;;;;35.72;29.42;;;20.50;99.90;;;;;;5015202;27;94446;-34
2023/06/29 06:24:34;;;;;;;40.35;30.40;;;20.60;99.90;;;;;;5015497;28;92911;-34
2023/06/29 06:27:01;;;;;;;36.90;29.67;;;20.60;99.90;;;;;;5014544;28;94592;-36
2023/06/29 06:29:27;;;;;;;49.03;30.17;;;20.80;99.90;;;;;;5014871;28;95013;-35
2023/06/29 06:31:53;;;;;;;37.95;29.30;;;20.80;99.90;;;;;;5000639;28;94338;-34
2023/06/29 06:34:19;;;;;;;38.55;29.73;;;20.90;99.90;;;;;;5014310;28;93229;-36
2023/06/29 06:36:48;;;;;;;37.20;28.23;;;20.90;99.90;;;;;;5014962;28;94500;-33
2023/06/29 06:39:15;;;;;;;34.08;27.33;;;20.90;99.90;;;;;;5015599;28;96215;-32
2023/06/29 06:41:41;;;;;;;47.00;31.00;;;20.90;99.90;;;;;;5014316;28;92825;-32
2023/06/29 06:44:07;;;;;;;34.70;28.02;;;20.90;99.90;;;;;;5014785;28;92865;-35
2023/06/29 06:46:33;;;;;;;39.60;28.45;;;20.90;99.90;;;;;;5013954;28;95591;-33
2023/06/29 06:48:59;;;;;;;58.80;31.70;;;20.90;99.90;;;;;;5013402;28;95160;-36
2023/06/29 06:51:25;;;;;;;37.20;29.58;;;20.90;99.90;;;;;;5014571;28;94902;-33
2023/06/29 06:53:51;;;;;;;43.85;29.60;;;20.90;99.90;;;;;;5014569;28;92094;-36
2023/06/29 06:56:16;;;;;;;66.00;35.80;;;21.00;99.90;;;;;;5013671;28;94771;-32
2023/06/29 06:58:42;;;;;;;53.08;33.83;;;21.00;99.90;;;;;;5001349;28;94026;-35
2023/06/29 07:01:08;;;;;;;41.60;32.30;;;21.10;99.90;;;;;;5013832;28;94014;-35
2023/06/29 07:03:34;;;;;;;39.78;30.30;;;21.10;99.90;;;;;;5001497;27;93641;-34
2023/06/29 07:05:59;;;;;;;42.70;33.13;;;21.10;99.90;;;;;;5013396;28;94461;-35
2023/06/29 07:08:25;;;;;;;36.65;29.17;;;21.10;99.90;;;;;;5001432;28;95192;-37
2023/06/29 07:10:51;;;;;;;37.38;30.80;;;21.20;99.90;;;;;;5013847;28;93186;-36
2023/06/29 07:13:18;;;;;;;57.53;33.05;;;21.20;99.90;;;;;;5014311;28;93435;-32
2023/06/29 07:15:45;;;;;;;39.28;30.77;;;21.30;99.90;;;;;;5014348;28;94405;-37
2023/06/29 07:18:11;;;;;;;40.17;31.20;;;21.30;99.90;;;;;;5013967;28;94874;-33
2023/06/29 07:20:36;;;;;;;48.33;31.70;;;21.30;99.90;;;;;;5013862;27;92490;-31
2023/06/29 07:23:02;;;;;;;41.53;31.83;;;21.30;99.90;;;;;;5014370;28;93943;-33
2023/06/29 07:25:28;;;;;;;45.13;31.13;;;21.30;99.90;;;;;;5012648;28;95935;-36
2023/06/29 07:27:54;;;;;;;39.65;32.80;;;21.20;99.90;;;;;;5013977;28;94585;-36
2023/06/29 07:30:20;;;;;;;40.58;32.03;;;21.20;99.90;;;;;;5013196;28;93409;-34
2023/06/29 07:32:45;;;;;;;39.45;29.63;;;21.10;99.90;;;;;;4999323;28;93691;-35
2023/06/29 07:35:11;;;;;;;39.30;29.20;;;21.10;99.90;;;;;;5013503;28;95453;-33
2023/06/29 07:37:37;;;;;;;36.58;31.58;;;21.20;99.90;;;;;;5021995;27;95630;-32
2023/06/29 07:40:04;;;;;;;37.85;32.50;;;21.20;99.90;;;;;;5034907;27;94769;-37
2023/06/29 07:42:30;;;;;;;41.90;31.90;;;21.20;99.90;;;;;;5034460;27;94066;-34
2023/06/29 07:44:55;;;;;;;41.47;31.00;;;21.30;99.90;;;;;;5033801;27;94010;-36
2023/06/29 07:47:21;;;;;;;39.03;30.80;;;21.30;99.90;;;;;;5034289;27;94521;-34
2023/06/29 07:49:47;;;;;;;38.60;29.63;;;21.40;99.90;;;;;;5033549;27;94385;-32
2023/06/29 07:52:12;;;;;;;40.42;29.17;;;21.40;99.90;;;;;;5034604;27;92581;-36
2023/06/29 07:54:38;;;;;;;40.28;32.13;;;21.50;99.90;;;;;;5033279;27;92373;-37
2023/06/29 07:57:04;;;;;;;33.95;29.33;;;21.60;99.90;;;;;;5034152;27;94739;-35
2023/06/29 07:59:29;;;;;;;32.97;27.75;;;21.70;99.90;;;;;;5033359;27;93945;-32
2023/06/29 08:01:55;;;;;;;39.83;32.08;;;21.70;99.90;;;;;;5033927;27;93287;-35
2023/06/29 08:04:21;;;;;;;40.22;32.17;;;21.80;99.90;;;;;;5033873;27;94826;-35
2023/06/29 08:06:46;;;;;;;40.42;30.95;;;21.80;99.90;;;;;;5030506;27;96126;-35
2023/06/29 08:09:12;;;;;;;38.08;27.55;;;21.90;99.90;;;;;;5033790;27;93282;-34
2023/06/29 08:11:38;;;;;;;38.88;28.02;;;21.90;99.90;;;;;;5034491;27;94146;-35
2023/06/29 08:14:04;;;;;;;39.45;29.40;;;22.00;99.90;;;;;;5033850;27;94720;-38
2023/06/29 08:16:30;;;;;;;47.72;29.95;;;22.10;99.90;;;;;;5027597;27;94453;-33
2023/06/29 08:18:56;;;;;;;43.08;28.63;;;22.20;99.90;;;;;;5034034;27;93768;-35
2023/06/29 08:21:22;;;;;;;40.92;28.75;;;22.30;99.90;;;;;;5033549;27;94008;-37
2023/06/29 08:23:49;;;;;;;33.70;27.00;;;22.40;99.90;;;;;;5033067;27;95781;-36
2023/06/29 08:26:15;;;;;;;31.90;27.70;;;22.40;99.90;;;;;;5033197;27;95020;-34
2023/06/29 08:28:41;;;;;;;30.95;25.77;;;22.40;99.90;;;;;;5015902;27;93797;-36
2023/06/29 08:31:06;;;;;;;34.25;28.35;;;22.40;99.90;;;;;;5033109;27;92851;-35
2023/06/29 08:33:32;;;;;;;37.63;29.60;;;22.40;99.90;;;;;;5033037;27;95504;-34
2023/06/29 08:35:58;;;;;;;37.15;29.60;;;22.30;99.90;;;;;;5033836;27;94596;-33
2023/06/29 08:38:23;;;;;;;37.08;29.75;;;22.30;99.90;;;;;;5033013;27;93025;-33
2023/06/29 08:40:49;;;;;;;39.03;29.83;;;22.20;99.90;;;;;;5033836;27;92761;-34
2023/06/29 08:43:17;;;;;;;33.78;26.40;;;22.20;99.90;;;;;;5032306;27;94535;-35
2023/06/29 08:45:44;;;;;;;;;;;22.30;99.90;;;;;;5033154;27;95277;-33
2023/06/29 08:48:11;;;;;;;36.67;28.60;;;22.40;99.90;;;;;;5035441;27;94253;-36
2023/06/29 08:50:43;;;;;;;36.08;27.30;;;22.40;99.90;;;;;;5033679;27;94367;-32
2023/06/29 08:53:09;;;;;;;33.83;27.33;;;22.40;99.90;;;;;;5020597;27;94869;-35
2023/06/29 08:55:36;;;;;;;42.20;29.98;;;22.40;99.90;;;;;;5033138;27;95422;-34
2023/06/29 08:58:02;;;;;;;36.75;26.33;;;22.40;99.90;;;;;;5032473;27;92867;-33
2023/06/29 09:00:29;;;;;;;29.98;24.33;;;22.40;99.90;;;;;;5014393;27;92186;-34
2023/06/29 09:02:55;;;;;;;35.33;25.85;;;22.50;99.90;;;;;;5033029;27;94687;-35
2023/06/29 09:05:21;;;;;;;33.08;25.90;;;22.50;99.90;;;;;;5014298;27;94531;-35
2023/06/29 09:07:49;;;;;;;34.72;25.92;;;22.60;99.90;;;;;;5033030;27;94394;-32
2023/06/29 09:10:15;;;;;;;37.22;26.25;;;22.70;99.90;;;;;;5033175;27;92964;-33
2023/06/29 09:12:41;;;;;;;31.33;24.90;;;22.80;99.90;;;;;;5032095;27;96016;-37
2023/06/29 09:15:12;;;;;;;35.38;23.80;;;22.90;99.90;;;;;;5033122;27;96162;-34
2023/06/29 09:17:44;;;;;;;33.80;26.60;;;23.00;99.90;;;;;;5032861;27;93497;-35
2023/06/29 09:20:13;;;;;;;42.72;25.77;;;23.10;99.90;;;;;;5035674;27;94591;-33
2023/06/29 09:22:39;;;;;;;32.67;24.77;;;23.10;99.90;;;;;;5035771;27;94614;-33
2023/06/29 09:25:06;;;;;;;38.45;26.00;;;23.10;99.90;;;;;;5036671;27;93822;-33
2023/06/29 09:27:35;;;;;;;35.55;23.77;;;23.10;99.90;;;;;;5036404;27;94074;-34
2023/06/29 09:30:03;;;;;;;36.22;23.23;;;23.20;99.90;;;;;;5036380;27;92605;-35
2023/06/29 09:32:29;;;;;;;;;;;23.20;99.90;;;;;;5035783;27;93392;-35
2023/06/29 09:34:55;;;;;;;33.03;24.48;;;23.10;99.90;;;;;;5038902;27;94586;-37
2023/06/29 09:37:20;;;;;;;31.45;22.38;;;23.30;99.90;;;;;;5035631;27;94914;-34
2023/06/29 09:39:56;;;;;;;28.10;22.27;;;23.20;99.90;;;;;;5036113;27;94072;-34
2023/06/29 09:42:22;;;;;;;33.05;23.90;;;23.20;99.90;;;;;;5003014;27;94308;-33
2023/06/29 09:44:48;;;;;;;35.13;25.48;;;23.10;99.90;;;;;;5028222;27;94279;-35
2023/06/29 09:47:13;;;;;;;35.10;25.98;;;23.00;99.90;;;;;;5016406;27;93563;-35
2023/06/29 09:49:47;;;;;;;35.03;23.52;;;22.90;99.90;;;;;;5016393;27;93655;-36
2023/06/29 09:52:14;;;;;;;35.08;22.98;;;22.90;99.90;;;;;;5015557;27;94884;-34
2023/06/29 09:54:39;;;;;;;30.38;22.58;;;23.00;99.90;;;;;;5028930;27;96376;-36
2023/06/29 09:57:07;;;;;;;31.35;25.77;;;22.90;99.90;;;;;;5015099;27;94471;-34
2023/06/29 09:59:39;;;;;;;34.67;25.45;;;23.00;99.90;;;;;;5029126;27;93011;-38
2023/06/29 10:02:09;;;;;;;33.70;23.67;;;22.90;99.90;;;;;;5015422;27;96270;-33
2023/06/29 10:04:36;;;;;;;31.02;22.90;;;23.10;99.90;;;;;;5014878;27;95376;-34
2023/06/29 10:07:07;;;;;;;33.47;25.70;;;23.10;99.90;;;;;;5015927;27;94672;-38
2023/06/29 10:09:39;;;;;;;35.25;24.05;;;23.10;99.90;;;;;;5018374;27;92072;-32
2023/06/29 10:12:08;;;;;;;33.00;24.58;;;23.20;99.90;;;;;;5034834;27;93676;-33
2023/06/29 10:14:36;;;;;;;28.65;21.95;;;23.10;99.90;;;;;;5035224;27;94750;-36
2023/06/29 10:17:04;;;;;;;35.92;26.30;;;23.10;99.90;;;;;;5035733;27;93394;-37
2023/06/29 10:19:33;;;;;;;32.90;24.55;;;22.70;99.90;;;;;;5035420;27;93752;-35
2023/06/29 10:22:08;;;;;;;32.17;24.33;;;22.80;99.90;;;;;;5035454;27;94651;-34
2023/06/29 10:24:42;;;;;;;33.33;25.27;;;22.70;99.90;;;;;;5028097;27;93826;-35
2023/06/29 10:27:09;;;;;;;40.10;25.95;;;22.70;99.90;;;;;;5015131;27;94054;-34
2023/06/29 10:29:50;;;;;;;29.93;25.33;;;22.60;99.90;;;;;;5014924;27;93185;-34
2023/06/29 10:32:37;;;;;;;35.28;24.50;;;22.50;99.90;;;;;;5015044;27;94392;-36
2023/06/29 10:35:05;;;;;;;34.72;26.02;;;22.50;99.90;;;;;;5014950;27;94547;-34
2023/06/29 10:37:33;;;;;;;32.47;25.98;;;22.50;99.90;;;;;;5024181;27;93647;-31
2023/06/29 10:39:59;;;;;;;32.42;24.30;;;22.30;99.90;;;;;;5035334;27;94593;-35
2023/06/29 10:42:25;;;;;;;31.88;24.88;;;22.30;99.90;;;;;;5034968;27;95051;-35
2023/06/29 10:44:50;;;;;;;32.63;23.90;;;22.20;99.90;;;;;;5035249;27;94926;-33
2023/06/29 10:47:36;;;;;;;31.95;24.58;;;22.20;99.90;;;;;;5034693;27;92649;-35
2023/06/29 10:50:11;;;;;;;29.67;22.55;;;22.20;99.90;;;;;;5035020;27;92226;-37
2023/06/29 10:52:38;;;;;;;32.88;24.13;;;22.30;99.90;;;;;;5035010;27;95175;-34
2023/06/29 10:55:25;;;;;;;33.00;23.80;;;22.30;99.90;;;;;;5034079;27;95516;-34
2023/06/29 10:57:54;;;;;;;29.48;21.75;;;22.40;99.90;;;;;;5034670;27;93649;-37
2023/06/29 11:00:21;;;;;;;30.77;21.95;;;22.40;99.90;;;;;;5034362;27;93658;-36
2023/06/29 11:02:47;;;;;;;31.92;23.15;;;22.40;99.90;;;;;;5034884;27;94660;-33
2023/06/29 11:05:14;;;;;;;32.72;24.42;;;22.30;99.90;;;;;;5034208;27;94716;-37
2023/06/29 11:07:41;;;;;;;33.40;24.27;;;22.30;99.90;;;;;;5016266;27;94933;-36
2023/06/29 11:10:07;;;;;;;36.00;24.10;;;22.30;99.90;;;;;;5035076;27;92181;-37
2023/06/29 11:12:35;;;;;;;28.25;23.95;;;22.10;99.90;;;;;;5034248;27;94162;-32
2023/06/29 11:15:01;;;;;;;;;;;22.20;99.90;;;;;;5034954;27;95642;-33
2023/06/29 11:17:26;;;;;;;34.33;24.85;;;22.10;99.90;;;;;;5035733;27;93752;-32
2023/06/29 11:19:52;;;;;;;30.30;22.90;;;22.10;99.90;;;;;;5033981;27;94504;-36
2023/06/29 11:22:18;;;;;;;35.05;24.80;;;22.10;99.90;;;;;;5032353;27;94407;-36
2023/06/29 11:24:44;;;;;;;36.30;24.73;;;22.20;99.90;;;;;;5034511;27;94662;-34
2023/06/29 11:27:10;;;;;;;31.48;23.88;;;22.30;99.90;;;;;;5034888;27;92806;-33
2023/06/29 11:29:38;;;;;;;35.20;26.02;;;22.30;99.90;;;;;;5034586;27;93647;-35
2023/06/29 11:32:15;;;;;;;32.25;25.40;;;22.30;99.90;;;;;;5034252;27;94671;-34
2023/06/29 11:34:41;;;;;;;40.35;27.95;;;22.40;99.90;;;;;;5034395;27;95320;-35
2023/06/29 11:37:09;;;;;;;37.80;27.20;;;22.40;99.90;;;;;;5033731;27;94066;-37
2023/06/29 11:39:35;;;;;;;38.78;28.48;;;22.50;99.90;;;;;;5035216;27;93269;-35
2023/06/29 11:42:07;;;;;;;40.78;28.42;;;22.50;99.90;;;;;;5014555;27;97362;-35
2023/06/29 11:44:33;;;;;;;36.88;28.15;;;22.40;99.90;;;;;;5025726;27;95381;-36
2023/06/29 11:46:59;;;;;;;37.90;28.35;;;22.50;99.90;;;;;;5032958;27;92949;-33
2023/06/29 11:49:25;;;;;;;43.72;29.33;;;22.60;99.90;;;;;;5034532;27;93707;-32
2023/06/29 11:51:51;;;;;;;41.65;29.17;;;22.60;99.90;;;;;;5034215;27;94602;-34
2023/06/29 11:54:17;;;;;;;41.05;29.63;;;22.80;99.90;;;;;;5033421;27;94809;-37
2023/06/29 11:56:43;;;;;;;41.00;28.20;;;22.80;99.90;;;;;;5016309;27;93161;-34
2023/06/29 11:59:13;;;;;;;38.42;28.42;;;22.90;99.90;;;;;;5034268;27;94024;-34
2023/06/29 12:01:39;;;;;;;42.90;29.67;;;23.10;99.90;;;;;;5033467;27;95783;-36
2023/06/29 12:04:08;;;;;;;43.28;30.13;;;23.20;99.90;;;;;;5035853;27;93868;-35
2023/06/29 12:06:35;;;;;;;37.50;28.75;;;23.30;99.90;;;;;;5033767;27;93796;-35
2023/06/29 12:09:09;;;;;;;33.65;27.85;;;23.40;99.90;;;;;;5034437;27;94506;-35
2023/06/29 12:11:34;;;;;;;29.35;25.55;;;23.60;99.90;;;;;;5033480;27;95308;-33
2023/06/29 12:14:01;;;;;;;41.38;28.02;;;23.60;99.90;;;;;;5033537;27;94357;-37
2023/06/29 12:16:27;;;;;;;38.05;27.20;;;23.80;99.90;;;;;;5032666;27;94155;-37
2023/06/29 12:18:52;;;;;;;30.80;25.50;;;23.90;99.90;;;;;;5033510;27;92101;-35
2023/06/29 12:21:21;;;;;;;41.97;26.30;;;24.10;99.90;;;;;;5034134;27;94476;-34
2023/06/29 12:23:47;;;;;;;36.22;27.52;;;24.20;99.90;;;;;;5034308;27;94262;-35
2023/06/29 12:26:14;;;;;;;37.90;27.88;;;24.20;99.90;;;;;;5033102;27;94468;-35